Time;durP1;ratioP1;P1;durP2;ratioP2;P2;SDS_P1;SDS_P2;PMS_P1;PMS_P2;Temp;Humidity;BMP_temperature;BMP_pressure;BME280_temperature;BME280_humidity;BME280_pressure;Samples;Min_cycle;Max_cycle;Signal;HPM_P1;HPM_P2
2024/02/01 00:10:26;;;;;;;22.60;11.95;;;7.30;99.90;;;;;;5898293;24;20046;-80
2024/02/01 00:13:31;;;;;;;22.33;12.05;;;7.40;99.90;;;;;;5870154;24;20086;-80
2024/02/01 00:29:11;;;;;;;21.48;10.40;;;7.30;72.50;;;;;;5972991;24;20016;-80
2024/02/01 00:32:49;;;;;;;18.45;11.18;;;7.30;99.90;;;;;;5968895;23;20024;-82
2024/02/01 00:35:52;;;;;;;18.42;10.73;;;7.30;99.90;;;;;;6094067;23;20026;-81
2024/02/01 00:39:00;;;;;;;21.05;10.10;;;7.30;99.90;;;;;;6095273;23;20054;-80
2024/02/01 00:42:00;;;;;;;18.67;9.77;;;7.40;99.90;;;;;;6089446;23;20019;-81
2024/02/01 00:45:08;;;;;;;14.65;9.57;;;7.40;99.90;;;;;;6095313;23;20022;-80
2024/02/01 06:46:22;;;;;;;7.55;5.53;;;7.50;99.90;;;;;;6093657;23;20496;-80
2024/02/01 06:49:18;;;;;;;6.22;3.80;;;7.50;99.90;;;;;;6065227;23;20116;-82
2024/02/01 07:00:51;;;;;;;6.68;4.15;;;7.20;99.90;;;;;;6055288;23;20027;-80
2024/02/01 07:03:51;;;;;;;9.60;4.13;;;7.10;99.90;;;;;;6055934;23;20081;-81
2024/02/01 07:06:53;;;;;;;5.72;4.35;;;7.10;99.90;;;;;;6068878;23;20030;-78
2024/02/01 07:09:47;;;;;;;7.22;4.53;;;7.00;99.90;;;;;;6079711;23;20027;-76
2024/02/01 07:12:53;;;;;;;8.52;4.43;;;6.90;99.90;;;;;;6074149;23;20027;-82
2024/02/01 07:15:43;;;;;;;8.88;4.28;;;6.80;99.90;;;;;;6033035;23;20026;-80
2024/02/01 07:18:33;;;;;;;15.93;8.95;;;6.80;99.90;;;;;;6067621;23;20022;-82
2024/02/01 07:21:30;;;;;;;6.78;4.63;;;6.80;99.90;;;;;;6041503;23;20027;-81
2024/02/01 07:24:27;;;;;;;7.90;4.68;;;6.80;99.90;;;;;;6071640;23;20054;-76
2024/02/01 07:58:40;;;;;;;7.13;4.75;;;6.60;99.90;;;;;;6060233;23;20115;-81
2024/02/01 08:01:37;;;;;;;9.27;4.57;;;6.60;99.90;;;;;;6058654;23;20450;-80
2024/02/01 08:07:49;;;;;;;12.00;6.85;;;6.60;99.90;;;;;;6058259;23;20030;-79
2024/02/01 08:10:37;;;;;;;;;;;6.60;99.90;;;;;;6059577;23;20037;-79
2024/02/01 08:13:25;;;;;;;5.78;4.38;;;6.60;99.90;;;;;;6059442;23;19922;-79
2024/02/01 08:16:17;;;;;;;6.55;4.50;;;6.60;99.90;;;;;;6058024;23;20062;-79
2024/02/01 08:19:08;;;;;;;8.10;4.25;;;6.60;99.90;;;;;;6059603;23;20026;-80
2024/02/01 08:22:08;;;;;;;7.03;4.72;;;6.60;99.90;;;;;;6062541;23;20026;-77
2024/02/01 08:24:56;;;;;;;7.70;4.68;;;6.60;99.90;;;;;;6054347;23;20033;-81
2024/02/01 08:27:55;;;;;;;6.57;4.00;;;6.60;99.90;;;;;;6054560;23;20681;-81
2024/02/01 08:30:45;;;;;;;10.38;4.97;;;6.60;99.90;;;;;;6060449;23;20212;-78
2024/02/01 08:33:33;;;;;;;8.98;4.53;;;6.60;99.90;;;;;;6069161;23;20054;-81
2024/02/01 08:36:21;;;;;;;7.80;4.35;;;6.60;99.90;;;;;;6068743;23;20054;-81
2024/02/01 08:39:12;;;;;;;9.65;4.65;;;6.60;99.90;;;;;;6059199;23;20082;-81
2024/02/01 08:42:04;;;;;;;;;;;6.70;99.90;;;;;;6058971;23;20050;-80
2024/02/01 08:44:52;;;;;;;7.38;4.80;;;6.60;99.90;;;;;;6068934;23;19922;-78
2024/02/01 08:47:42;;;;;;;7.30;4.60;;;6.60;99.90;;;;;;6061513;23;20037;-81
2024/02/01 08:50:33;;;;;;;10.55;4.53;;;6.60;99.90;;;;;;6035184;23;20031;-81
2024/02/01 08:53:22;;;;;;;7.70;5.07;;;6.60;99.90;;;;;;6037712;23;20447;-82
2024/02/01 08:56:10;;;;;;;7.57;4.88;;;6.60;99.90;;;;;;6058668;23;20098;-81
2024/02/01 08:58:59;;;;;;;10.68;5.35;;;6.60;99.90;;;;;;6058503;23;20334;-78
2024/02/01 09:01:48;;;;;;;12.50;5.28;;;6.50;99.90;;;;;;6039753;23;20473;-81
2024/02/01 09:04:36;;;;;;;10.15;5.50;;;6.60;99.90;;;;;;6034608;23;20496;-81
2024/02/01 09:07:26;;;;;;;9.52;5.47;;;6.60;99.90;;;;;;6059826;23;20034;-81
2024/02/01 09:10:17;;;;;;;8.75;5.13;;;6.60;99.90;;;;;;6059029;23;20035;-82
2024/02/01 09:13:08;;;;;;;8.77;5.55;;;6.60;99.90;;;;;;6060754;23;20256;-81
2024/02/01 09:15:56;;;;;;;10.00;4.95;;;6.70;99.90;;;;;;6063574;23;20091;-78
2024/02/01 09:18:54;;;;;;;9.85;4.53;;;6.70;99.90;;;;;;6065697;23;20031;-79
2024/02/01 09:21:41;;;;;;;19.52;10.20;;;6.80;99.90;;;;;;6070735;23;20074;-81
2024/02/01 09:24:29;;;;;;;8.98;5.93;;;6.70;99.90;;;;;;6053236;23;20022;-78
2024/02/01 09:27:17;;;;;;;8.57;5.15;;;6.70;99.90;;;;;;6049645;23;20055;-80
2024/02/01 09:30:06;;;;;;;11.15;5.18;;;6.70;99.90;;;;;;6049870;23;20027;-81
2024/02/01 09:32:56;;;;;;;12.60;5.28;;;6.70;99.90;;;;;;6064204;23;20030;-81
2024/02/01 09:35:45;;;;;;;9.70;5.60;;;6.80;99.90;;;;;;6058963;23;20086;-79
2024/02/01 09:38:33;;;;;;;6.15;4.00;;;6.90;99.90;;;;;;6037426;23;20033;-81
2024/02/01 09:41:21;;;;;;;8.52;4.30;;;6.90;99.90;;;;;;6039697;23;20137;-81
2024/02/01 09:44:09;;;;;;;6.97;4.40;;;6.90;99.90;;;;;;6038758;23;20030;-81
2024/02/01 09:47:04;;;;;;;8.35;5.15;;;6.90;99.90;;;;;;6058107;23;20354;-78
2024/02/01 09:49:54;;;;;;;9.52;4.40;;;6.90;99.90;;;;;;6040244;23;20156;-81
2024/02/01 09:52:44;;;;;;;5.95;3.75;;;6.90;99.90;;;;;;6039993;23;20031;-80
2024/02/01 09:55:33;;;;;;;5.72;4.10;;;7.00;99.90;;;;;;6058118;23;20037;-80
2024/02/01 09:58:21;;;;;;;5.78;4.03;;;7.00;99.90;;;;;;6061521;23;20041;-81
2024/02/01 10:01:10;;;;;;;8.07;4.38;;;7.00;99.90;;;;;;6063244;23;20094;-78
2024/02/01 10:04:01;;;;;;;6.88;3.85;;;7.10;99.90;;;;;;6052785;23;20417;-79
2024/02/01 10:06:49;;;;;;;6.40;4.03;;;7.10;99.90;;;;;;6039318;23;20570;-82
2024/02/01 10:09:37;;;;;;;6.15;4.18;;;7.20;99.90;;;;;;6061807;23;20027;-82
2024/02/01 10:12:26;;;;;;;8.07;3.70;;;7.20;99.90;;;;;;6070270;23;20109;-81
2024/02/01 10:15:19;;;;;;;8.98;4.22;;;7.30;99.90;;;;;;6074720;23;20102;-80
2024/02/01 10:18:21;;;;;;;5.40;3.88;;;7.40;99.90;;;;;;6072824;23;20037;-80
2024/02/01 10:21:25;;;;;;;4.77;3.70;;;7.40;99.90;;;;;;6070989;23;20030;-81
2024/02/01 10:24:27;;;;;;;4.95;3.53;;;7.50;99.90;;;;;;6066105;23;20010;-79
2024/02/01 10:27:19;;;;;;;5.43;3.53;;;7.50;99.90;;;;;;6066093;23;20045;-78
2024/02/01 10:30:09;;;;;;;4.05;3.45;;;7.60;99.90;;;;;;6068619;23;20035;-81
2024/02/01 10:33:01;;;;;;;7.63;5.07;;;7.70;99.90;;;;;;6067902;23;20059;-80
2024/02/01 10:35:52;;;;;;;5.60;2.92;;;7.80;99.90;;;;;;6038784;23;20055;-80
2024/02/01 10:38:45;;;;;;;6.47;3.10;;;7.90;99.90;;;;;;6040012;23;20018;-82
2024/02/01 10:41:38;;;;;;;4.05;2.83;;;8.10;99.90;;;;;;6038124;23;20034;-82
2024/02/01 10:44:33;;;;;;;5.72;2.97;;;8.10;99.90;;;;;;6038224;23;20027;-82
2024/02/01 10:47:25;;;;;;;5.72;3.30;;;8.30;99.90;;;;;;6059976;23;20034;-81
2024/02/01 10:50:14;;;;;;;4.60;2.92;;;8.40;99.90;;;;;;6060174;23;20031;-82
2024/02/01 10:53:05;;;;;;;4.10;2.63;;;8.50;99.90;;;;;;6058378;23;20086;-81
2024/02/01 10:55:54;;;;;;;2.63;2.25;;;8.80;99.90;;;;;;6060421;23;20434;-78
2024/02/01 10:58:51;;;;;;;8.05;4.22;;;8.70;99.90;;;;;;6061335;23;20129;-81
2024/02/01 11:01:40;;;;;;;8.65;3.45;;;8.70;99.90;;;;;;6040018;23;20047;-80
2024/02/01 11:04:35;;;;;;;12.75;8.18;;;8.80;99.90;;;;;;6060681;23;20035;-80
2024/02/01 11:07:25;;;;;;;9.70;6.45;;;8.80;99.90;;;;;;6060767;23;20087;-81
2024/02/01 11:10:14;;;;;;;4.70;2.22;;;8.60;99.90;;;;;;6039452;23;20030;-81
2024/02/01 11:13:03;;;;;;;3.80;2.40;;;8.50;99.90;;;;;;6058647;23;20039;-79
2024/02/01 11:15:55;;;;;;;4.43;2.40;;;8.50;99.90;;;;;;6060334;23;20030;-80
2024/02/01 11:18:54;;;;;;;1.90;1.80;;;8.40;99.90;;;;;;6046055;23;20551;-79
2024/02/01 11:21:47;;;;;;;3.33;2.33;;;8.40;99.90;;;;;;6072209;23;20037;-82
2024/02/01 11:24:41;;;;;;;4.85;2.00;;;8.30;99.90;;;;;;6070224;23;20075;-81
2024/02/01 11:27:29;;;;;;;2.22;1.80;;;8.30;99.90;;;;;;6065729;23;20027;-80
2024/02/01 11:30:26;;;;;;;4.07;1.70;;;8.30;99.90;;;;;;6055193;23;20023;-80
2024/02/01 11:33:19;;;;;;;2.22;1.70;;;8.30;99.90;;;;;;6053088;23;20414;-81
2024/02/01 11:36:07;;;;;;;1.48;1.30;;;8.40;99.90;;;;;;6078451;23;20027;-82
2024/02/01 11:38:55;;;;;;;1.75;1.38;;;8.30;99.90;;;;;;6070450;23;20031;-80
2024/02/01 11:41:49;;;;;;;2.95;1.45;;;8.40;99.90;;;;;;6074722;23;20047;-80
2024/02/01 11:44:40;;;;;;;2.05;1.23;;;8.40;99.90;;;;;;6067521;23;20059;-82
2024/02/01 11:47:28;;;;;;;3.20;1.13;;;8.50;99.90;;;;;;6062583;23;20030;-79
2024/02/01 11:50:17;;;;;;;1.40;1.23;;;8.50;99.90;;;;;;6059635;23;20422;-80
2024/02/01 11:53:10;;;;;;;2.83;1.20;;;8.50;99.90;;;;;;6057813;23;20034;-79
2024/02/01 11:55:57;;;;;;;1.30;1.20;;;8.50;99.90;;;;;;6038691;23;20026;-79
2024/02/01 11:58:46;;;;;;;1.20;1.10;;;8.50;99.90;;;;;;6061105;23;20030;-81
2024/02/01 12:01:34;;;;;;;1.20;1.10;;;8.60;99.90;;;;;;6040497;23;20533;-81
2024/02/01 12:04:24;;;;;;;1.27;1.15;;;8.60;99.90;;;;;;6060967;23;20027;-80
2024/02/01 12:07:17;;;;;;;4.20;2.05;;;8.80;99.90;;;;;;6066799;23;20054;-80
2024/02/01 12:10:11;;;;;;;6.50;4.25;;;8.90;99.90;;;;;;6021504;23;20037;-81
2024/02/01 12:13:01;;;;;;;1.10;1.00;;;9.00;99.90;;;;;;6061863;23;20027;-79
2024/02/01 12:15:52;;;;;;;2.10;1.20;;;9.10;99.90;;;;;;6060338;23;20030;-78
2024/02/01 12:18:40;;;;;;;1.45;1.35;;;9.10;99.90;;;;;;6067347;23;20106;-77
2024/02/01 12:21:29;;;;;;;5.25;2.90;;;9.10;99.90;;;;;;6048831;23;20037;-79
2024/02/01 12:24:18;;;;;;;8.85;5.10;;;9.10;99.90;;;;;;6064634;23;20026;-80
2024/02/01 12:27:06;;;;;;;6.85;4.35;;;9.10;99.90;;;;;;6037678;23;20023;-81
2024/02/01 12:29:54;;;;;;;6.30;3.88;;;9.00;99.90;;;;;;6038096;23;20034;-81
2024/02/01 12:32:45;;;;;;;6.90;3.25;;;9.10;99.90;;;;;;6066448;23;20046;-79
2024/02/01 12:35:34;;;;;;;5.15;2.70;;;9.10;99.90;;;;;;6060238;23;20031;-82
2024/02/01 12:38:23;;;;;;;3.40;2.20;;;9.20;99.90;;;;;;6040326;23;20035;-79
2024/02/01 12:41:14;;;;;;;1.45;1.23;;;9.40;99.90;;;;;;6018892;23;20076;-81
2024/02/01 12:44:03;;;;;;;0.93;0.93;;;9.60;99.90;;;;;;6070998;23;20026;-80
2024/02/01 12:46:51;;;;;;;1.77;1.20;;;9.80;99.90;;;;;;6066314;23;20090;-82
2024/02/01 12:49:40;;;;;;;0.82;0.82;;;9.90;99.90;;;;;;6035880;23;20111;-82
2024/02/01 12:52:28;;;;;;;0.80;0.80;;;10.00;99.90;;;;;;6060430;23;20570;-80
2024/02/01 12:55:17;;;;;;;0.80;0.80;;;10.10;99.90;;;;;;6057206;23;20027;-81
2024/02/01 12:58:05;;;;;;;0.80;0.80;;;10.10;99.90;;;;;;6058430;23;20548;-81
2024/02/01 13:00:54;;;;;;;1.38;1.02;;;10.00;99.90;;;;;;6059087;23;20035;-81
2024/02/01 13:03:43;;;;;;;1.88;1.05;;;10.00;99.90;;;;;;6069796;23;20427;-81
2024/02/01 13:06:31;;;;;;;1.30;1.05;;;9.80;99.90;;;;;;6070089;23;20106;-80
2024/02/01 13:09:28;;;;;;;3.03;1.15;;;9.70;99.90;;;;;;6058481;23;20034;-81
2024/02/01 13:12:21;;;;;;;1.13;1.05;;;9.60;99.90;;;;;;6053960;23;20066;-79
2024/02/01 13:15:11;;;;;;;1.52;1.00;;;9.50;99.90;;;;;;6047477;23;20460;-79
2024/02/01 13:17:58;;;;;;;1.23;1.10;;;9.40;99.90;;;;;;6067042;23;20038;-82
2024/02/01 13:20:48;;;;;;;1.77;1.00;;;9.40;99.90;;;;;;6038020;23;20048;-81
2024/02/01 13:23:36;;;;;;;1.13;1.00;;;9.20;99.90;;;;;;6061095;23;20029;-80
2024/02/01 13:26:25;;;;;;;1.08;1.08;;;9.30;99.90;;;;;;6059338;23;20027;-82
2024/02/01 13:29:14;;;;;;;2.58;1.38;;;9.20;99.90;;;;;;6039024;23;20031;-81
2024/02/01 13:32:08;;;;;;;2.00;1.75;;;9.10;99.90;;;;;;6038180;23;20031;-81
2024/02/01 13:34:55;;;;;;;1.58;1.23;;;8.90;99.90;;;;;;6061104;23;20481;-80
2024/02/01 13:37:46;;;;;;;1.23;1.13;;;8.80;99.90;;;;;;6037257;23;20034;-81
2024/02/01 13:40:34;;;;;;;1.55;1.25;;;8.70;99.90;;;;;;6060420;23;20027;-80
2024/02/01 13:43:22;;;;;;;4.13;1.33;;;8.60;99.90;;;;;;6073603;23;20121;-79
2024/02/01 13:46:12;;;;;;;1.60;1.50;;;8.50;99.90;;;;;;6078941;23;20524;-80
2024/02/01 13:49:02;;;;;;;2.05;1.85;;;8.50;99.90;;;;;;6073873;23;20090;-78
2024/02/01 13:51:51;;;;;;;3.00;1.75;;;8.40;99.90;;;;;;6069803;23;20366;-82
2024/02/01 13:54:39;;;;;;;1.90;1.80;;;8.30;99.90;;;;;;6037822;23;20027;-81
2024/02/01 13:57:28;;;;;;;2.03;1.70;;;8.30;99.90;;;;;;6062165;23;20077;-79
2024/02/01 14:00:16;;;;;;;2.28;1.60;;;8.30;99.90;;;;;;6049738;23;20037;-81
2024/02/01 14:03:07;;;;;;;1.90;1.70;;;8.30;99.90;;;;;;6069356;23;20038;-81
2024/02/01 14:05:55;;;;;;;1.95;1.75;;;8.30;99.90;;;;;;6060107;23;20027;-79
2024/02/01 14:08:44;;;;;;;1.63;1.52;;;8.30;99.90;;;;;;6060598;23;20111;-80
2024/02/01 14:11:38;;;;;;;3.15;1.83;;;8.20;99.90;;;;;;6038270;23;20035;-81
2024/02/01 14:14:26;;;;;;;2.80;2.08;;;8.20;99.90;;;;;;6040376;23;20031;-80
2024/02/01 14:17:14;;;;;;;1.95;1.80;;;8.20;99.90;;;;;;6057473;23;20129;-82
2024/02/01 14:20:03;;;;;;;3.40;2.30;;;8.20;99.90;;;;;;6037648;23;20022;-80
2024/02/01 14:22:51;;;;;;;3.47;2.33;;;8.10;99.90;;;;;;6061832;23;20113;-80
2024/02/01 14:25:40;;;;;;;2.25;2.05;;;8.10;99.90;;;;;;6061454;23;20078;-79
2024/02/01 14:28:29;;;;;;;2.67;2.20;;;8.20;99.90;;;;;;6041638;23;20027;-81
2024/02/01 14:31:17;;;;;;;3.78;2.78;;;8.20;99.90;;;;;;6059115;23;20030;-82
2024/02/01 14:34:04;;;;;;;3.53;3.05;;;8.20;99.90;;;;;;6070165;23;20503;-79
2024/02/01 14:36:53;;;;;;;3.63;3.30;;;8.20;99.90;;;;;;6041042;23;20481;-81
2024/02/01 14:39:42;;;;;;;4.80;3.10;;;8.20;99.90;;;;;;6038210;23;20055;-81
2024/02/01 14:42:30;;;;;;;3.63;2.75;;;8.30;99.90;;;;;;6063767;23;20117;-79
2024/02/01 14:45:21;;;;;;;4.18;3.50;;;8.30;99.90;;;;;;6068702;23;20105;-80
2024/02/01 14:48:10;;;;;;;4.03;3.33;;;8.30;99.90;;;;;;6047237;23;20033;-80
2024/02/01 14:50:58;;;;;;;6.38;3.60;;;8.20;99.90;;;;;;6061854;23;20023;-78
2024/02/01 14:53:47;;;;;;;4.30;3.80;;;8.20;99.90;;;;;;6059236;23;20078;-80
2024/02/01 14:56:35;;;;;;;4.22;3.80;;;8.10;99.90;;;;;;6058050;23;20426;-80
2024/02/01 14:59:23;;;;;;;5.63;4.47;;;8.10;99.90;;;;;;6059008;23;20059;-80
2024/02/01 15:02:11;;;;;;;6.03;4.55;;;8.00;99.90;;;;;;6056475;23;20038;-80
2024/02/01 15:04:59;;;;;;;6.03;4.45;;;8.00;99.90;;;;;;6059968;23;20064;-80
2024/02/01 15:07:47;;;;;;;6.25;4.20;;;8.00;99.90;;;;;;6060280;23;20027;-81
2024/02/01 15:10:36;;;;;;;4.53;3.85;;;8.00;99.90;;;;;;6058349;23;20042;-79
2024/02/01 15:13:23;;;;;;;5.55;4.22;;;8.10;99.90;;;;;;6059555;23;20486;-80
2024/02/01 15:16:11;;;;;;;6.78;3.72;;;8.10;99.90;;;;;;6039434;23;20078;-79
2024/02/01 15:19:02;;;;;;;4.75;4.22;;;8.10;99.90;;;;;;6058430;23;20370;-79
2024/02/01 15:21:51;;;;;;;5.43;4.50;;;8.00;99.90;;;;;;6056956;23;20152;-80
2024/02/01 15:24:39;;;;;;;7.30;4.97;;;7.90;99.90;;;;;;6082409;23;20066;-78
2024/02/01 15:27:27;;;;;;;6.25;5.00;;;7.80;99.90;;;;;;6054049;23;20052;-81
2024/02/01 15:30:16;;;;;;;5.45;4.40;;;7.80;99.90;;;;;;6042350;23;20041;-83
2024/02/01 15:33:04;;;;;;;7.60;4.40;;;7.80;99.90;;;;;;6058332;23;20034;-78
2024/02/01 15:35:54;;;;;;;7.18;5.15;;;7.70;99.90;;;;;;6035773;23;20030;-79
2024/02/01 15:38:46;;;;;;;7.68;5.57;;;7.70;99.90;;;;;;6043682;23;20023;-80
2024/02/01 15:41:36;;;;;;;7.27;5.20;;;7.70;99.90;;;;;;6059192;23;20098;-78
2024/02/01 15:44:24;;;;;;;6.00;4.97;;;7.60;99.90;;;;;;6068049;23;20059;-81
2024/02/01 15:47:13;;;;;;;8.13;5.28;;;7.60;99.90;;;;;;6053818;23;20067;-80
2024/02/01 15:50:00;;;;;;;7.07;5.82;;;7.60;99.90;;;;;;6074902;23;20027;-78
2024/02/01 15:52:49;;;;;;;8.43;6.68;;;7.60;99.90;;;;;;6050853;23;20109;-81
2024/02/01 15:55:39;;;;;;;8.52;5.78;;;7.60;99.90;;;;;;6057904;23;20030;-80
2024/02/01 15:58:27;;;;;;;13.40;8.25;;;7.50;99.90;;;;;;6056788;23;20034;-80
2024/02/01 16:01:17;;;;;;;9.85;7.18;;;7.50;99.90;;;;;;6056846;23;20635;-81
2024/02/01 16:04:04;;;;;;;9.95;7.28;;;7.50;99.90;;;;;;6059333;23;20479;-80
2024/02/01 16:06:53;;;;;;;12.13;7.30;;;7.40;99.90;;;;;;6061034;23;20091;-80
2024/02/01 16:09:41;;;;;;;12.07;8.63;;;7.40;99.90;;;;;;6063572;23;20083;-83
2024/02/01 16:12:29;;;;;;;12.52;8.68;;;7.40;99.90;;;;;;6066797;23;20134;-83
2024/02/01 16:15:19;;;;;;;14.48;9.07;;;7.40;99.90;;;;;;6018166;23;20067;-81
2024/02/01 16:18:29;;;;;;;19.65;10.18;;;7.40;99.90;;;;;;6058898;23;20031;-82
2024/02/01 16:21:18;;;;;;;11.25;8.10;;;7.30;99.90;;;;;;6045937;23;20102;-82
2024/02/01 16:24:10;;;;;;;9.82;7.78;;;7.30;99.90;;;;;;6068987;23;20027;-82
2024/02/01 16:26:58;;;;;;;12.52;8.30;;;7.30;99.90;;;;;;6062796;23;20057;-80
2024/02/01 16:30:05;;;;;;;11.32;8.35;;;7.30;99.90;;;;;;6057519;23;20026;-79
2024/02/01 16:32:53;;;;;;;10.77;8.10;;;7.20;99.90;;;;;;6056944;23;20042;-82
2024/02/01 16:36:01;;;;;;;11.52;8.65;;;7.10;99.90;;;;;;6035590;23;20082;-83
2024/02/01 16:38:49;;;;;;;13.82;8.90;;;7.00;99.90;;;;;;6039840;23;20832;-81
2024/02/01 16:41:37;;;;;;;16.63;11.52;;;6.90;99.90;;;;;;6065079;23;20056;-81
2024/02/01 16:44:46;;;;;;;15.43;9.93;;;6.80;99.90;;;;;;6062194;23;20082;-81
2024/02/01 16:47:44;;;;;;;12.80;9.40;;;6.80;99.90;;;;;;6059259;23;20034;-82
2024/02/01 16:50:40;;;;;;;14.23;8.07;;;6.70;99.90;;;;;;6058985;23;20034;-82
2024/02/01 16:53:43;;;;;;;14.95;9.70;;;6.60;99.90;;;;;;6040307;23;20650;-79
2024/02/01 16:56:32;;;;;;;13.05;9.68;;;6.60;99.90;;;;;;6062557;23;20030;-79
2024/02/01 16:59:23;;;;;;;15.98;9.05;;;6.50;99.90;;;;;;6075406;23;20038;-81
2024/02/01 17:03:05;;;;;;;21.40;13.32;;;6.40;99.90;;;;;;6072848;23;20113;-80
2024/02/01 17:06:11;;;;;;;12.13;8.63;;;6.30;99.90;;;;;;6064455;23;20035;-81
2024/02/01 17:09:00;;;;;;;12.20;8.32;;;6.20;99.90;;;;;;6056748;23;20033;-82
2024/02/01 17:11:53;;;;;;;11.98;8.57;;;6.10;99.90;;;;;;6036936;23;20027;-80
2024/02/01 17:14:43;;;;;;;12.50;8.70;;;6.10;99.90;;;;;;6056563;23;20026;-82
2024/02/01 17:17:36;;;;;;;10.05;8.43;;;6.00;99.90;;;;;;6057055;23;20030;-80
2024/02/01 17:20:23;;;;;;;10.57;8.25;;;6.10;99.90;;;;;;6053332;23;20035;-80
2024/02/01 17:23:18;;;;;;;12.75;9.32;;;6.10;99.90;;;;;;6055495;23;20345;-82
2024/02/01 17:26:20;;;;;;;16.08;10.02;;;6.10;99.90;;;;;;6056232;23;20054;-81
2024/02/01 17:29:10;;;;;;;15.80;10.13;;;6.00;99.90;;;;;;6056604;23;20058;-81
2024/02/01 17:31:59;;;;;;;14.50;9.65;;;5.90;99.90;;;;;;6056626;23;20081;-81
2024/02/01 17:34:49;;;;;;;14.48;10.07;;;5.90;99.90;;;;;;6060201;23;20031;-81
2024/02/01 17:37:42;;;;;;;13.80;10.10;;;5.80;99.90;;;;;;6057989;23;20076;-82
2024/02/01 17:40:53;;;;;;;16.58;11.85;;;5.70;99.90;;;;;;6057136;23;20378;-84
2024/02/01 17:43:48;;;;;;;19.48;13.00;;;5.60;99.90;;;;;;6058471;23;20030;-82
2024/02/01 17:46:52;;;;;;;18.35;11.70;;;5.60;99.90;;;;;;6062233;23;20058;-85
2024/02/01 17:49:49;;;;;;;17.50;12.63;;;5.60;99.90;;;;;;6067602;23;20026;-83
2024/02/01 17:52:48;;;;;;;18.17;12.65;;;5.60;99.90;;;;;;6064329;23;20083;-81
2024/02/01 17:55:52;;;;;;;17.23;11.52;;;5.60;99.90;;;;;;6040960;23;20031;-81
2024/02/01 17:58:45;;;;;;;27.10;15.43;;;5.50;99.90;;;;;;6045444;23;20086;-82
2024/02/01 18:01:35;;;;;;;;;;;5.50;99.90;;;;;;6074155;23;20026;-81
2024/02/01 18:04:37;;;;;;;23.63;15.32;;;5.40;99.90;;;;;;6070264;23;19925;-81
2024/02/01 18:07:27;;;;;;;27.83;16.25;;;5.40;99.90;;;;;;6059218;23;20105;-82
2024/02/01 18:10:17;;;;;;;27.30;15.60;;;5.30;99.90;;;;;;6061860;23;20210;-81
2024/02/01 18:13:06;;;;;;;25.13;14.27;;;5.20;99.90;;;;;;6045677;23;20050;-81
2024/02/01 18:16:04;;;;;;;26.17;14.85;;;5.20;99.90;;;;;;6071173;23;20118;-81
2024/02/01 18:19:07;;;;;;;29.35;17.23;;;5.10;99.90;;;;;;6063498;23;20636;-79
2024/02/01 18:21:56;;;;;;;26.30;16.95;;;5.00;99.90;;;;;;6044991;23;20348;-81
2024/02/01 18:24:46;;;;;;;27.25;17.20;;;4.80;99.90;;;;;;6047448;23;20023;-79
2024/02/01 18:27:44;;;;;;;28.55;17.88;;;4.70;99.90;;;;;;6075513;23;20050;-82
2024/02/01 18:30:43;;;;;;;27.88;17.80;;;4.60;99.90;;;;;;6074916;23;20402;-83
2024/02/01 18:33:35;;;;;;;23.05;16.08;;;4.50;99.90;;;;;;6071891;23;20362;-81
2024/02/01 18:36:32;;;;;;;24.75;16.92;;;4.50;99.90;;;;;;6051505;23;20375;-82
2024/02/01 18:39:30;;;;;;;23.55;15.93;;;4.40;99.90;;;;;;6067393;23;20361;-83
2024/02/01 18:42:52;;;;;;;19.75;14.48;;;4.40;99.90;;;;;;6073084;23;20110;-83
2024/02/01 18:45:44;;;;;;;22.95;14.70;;;4.40;99.90;;;;;;6066559;23;20058;-80
2024/02/01 18:48:42;;;;;;;22.95;16.20;;;4.50;99.90;;;;;;6073631;23;20042;-84
2024/02/01 18:51:31;;;;;;;22.38;16.25;;;4.50;99.90;;;;;;6074503;23;20082;-82
2024/02/01 18:54:29;;;;;;;24.55;16.92;;;4.60;99.90;;;;;;6067486;23;20041;-83
2024/02/01 18:57:34;;;;;;;34.25;21.05;;;4.50;99.90;;;;;;6050938;23;20035;-80
2024/02/01 19:00:48;;;;;;;33.13;20.20;;;4.50;99.90;;;;;;6063353;23;20454;-79
2024/02/01 19:03:46;;;;;;;29.13;19.23;;;4.50;99.90;;;;;;6045848;23;20035;-80
2024/02/01 19:06:45;;;;;;;27.35;18.30;;;4.60;99.90;;;;;;6070057;23;20023;-76
2024/02/01 19:09:41;;;;;;;26.80;17.02;;;4.60;99.90;;;;;;6068772;23;20041;-79
2024/02/01 19:12:36;;;;;;;25.73;18.30;;;4.60;99.90;;;;;;6069007;23;20034;-81
2024/02/01 19:15:40;;;;;;;25.48;18.17;;;4.60;99.90;;;;;;6064694;23;20082;-83
2024/02/01 19:18:33;;;;;;;29.35;17.42;;;4.50;99.90;;;;;;6050152;23;20030;-83
2024/02/01 19:21:25;;;;;;;28.13;19.25;;;4.50;99.90;;;;;;6046380;23;20117;-82
2024/02/01 19:24:24;;;;;;;25.88;17.48;;;4.50;99.90;;;;;;6069146;23;20026;-85
2024/02/01 19:27:26;;;;;;;24.45;18.42;;;4.50;99.90;;;;;;6052260;23;20027;-83
2024/02/01 19:30:38;;;;;;;24.75;17.23;;;4.60;99.90;;;;;;6070589;23;20070;-83
2024/02/01 19:33:27;;;;;;;25.73;18.02;;;4.60;99.90;;;;;;6052116;23;20026;-82
2024/02/01 19:36:38;;;;;;;23.35;17.65;;;4.60;99.90;;;;;;6066483;23;20486;-86
2024/02/01 19:39:35;;;;;;;26.38;19.05;;;4.60;99.90;;;;;;6054749;23;20461;-83
2024/02/01 19:42:28;;;;;;;25.27;19.05;;;4.70;99.90;;;;;;6046556;23;20023;-83
2024/02/01 19:45:21;;;;;;;29.08;18.50;;;4.60;99.90;;;;;;6053431;23;20121;-83
2024/02/01 19:48:18;;;;;;;28.20;17.95;;;4.60;99.90;;;;;;6073955;23;20027;-84
2024/02/01 19:51:18;;;;;;;24.92;18.73;;;4.60;99.90;;;;;;6055686;23;20038;-83
2024/02/01 19:54:07;;;;;;;25.13;18.83;;;4.60;99.90;;;;;;6067231;23;20078;-81
2024/02/01 19:57:03;;;;;;;27.15;18.73;;;4.60;99.90;;;;;;6069924;23;20035;-84
2024/02/01 20:00:00;;;;;;;21.20;15.45;;;4.60;99.90;;;;;;6074015;23;20051;-81
2024/02/01 20:02:54;;;;;;;21.40;14.85;;;4.80;99.90;;;;;;6072877;23;20042;-83
2024/02/01 20:05:45;;;;;;;21.08;15.68;;;4.80;99.90;;;;;;6062467;23;20031;-84
2024/02/01 20:08:35;;;;;;;19.85;14.95;;;4.80;99.90;;;;;;6072308;23;20027;-82
2024/02/01 20:11:29;;;;;;;21.27;13.70;;;4.80;99.90;;;;;;6078919;23;20011;-82
2024/02/01 20:14:23;;;;;;;19.15;15.15;;;4.80;99.90;;;;;;6071687;23;20023;-83
2024/02/01 20:17:19;;;;;;;21.00;14.95;;;4.90;99.90;;;;;;6041652;23;20035;-83
2024/02/01 20:20:23;;;;;;;21.05;15.77;;;4.90;99.90;;;;;;6059735;23;20042;-84
2024/02/01 20:23:18;;;;;;;23.05;15.63;;;5.00;99.90;;;;;;6059661;23;20030;-83
2024/02/01 20:26:14;;;;;;;25.02;15.70;;;4.90;99.90;;;;;;6021325;23;20023;-84
2024/02/01 20:29:10;;;;;;;19.98;14.68;;;4.90;99.90;;;;;;6060357;23;20026;-83
2024/02/01 20:32:04;;;;;;;20.08;13.73;;;4.90;99.90;;;;;;6040429;23;20027;-84
2024/02/01 20:34:55;;;;;;;14.32;11.10;;;4.90;99.90;;;;;;6060135;23;20098;-85
2024/02/01 20:38:10;;;;;;;15.82;12.30;;;4.90;99.90;;;;;;6045178;23;20031;-84
2024/02/01 20:41:10;;;;;;;20.35;13.82;;;4.90;99.90;;;;;;6069486;23;20023;-85
2024/02/01 20:44:14;;;;;;;18.17;13.52;;;5.00;99.90;;;;;;6060291;23;20094;-83
2024/02/01 20:47:09;;;;;;;19.23;14.15;;;5.00;99.90;;;;;;6055658;23;20030;-84
2024/02/01 20:49:59;;;;;;;19.92;13.73;;;5.00;99.90;;;;;;6058976;23;20030;-83
2024/02/01 20:52:50;;;;;;;20.52;14.98;;;5.00;99.90;;;;;;6039298;23;20120;-86
2024/02/01 20:55:40;;;;;;;18.40;13.55;;;5.00;99.90;;;;;;6058931;23;20058;-83
2024/02/01 20:58:51;;;;;;;18.88;13.55;;;5.00;99.90;;;;;;6063200;23;20038;-85
2024/02/01 21:01:42;;;;;;;17.93;13.63;;;5.00;99.90;;;;;;6061714;23;20031;-83
2024/02/01 21:04:35;;;;;;;19.80;14.00;;;5.00;99.90;;;;;;6077450;23;20023;-84
2024/02/01 21:07:27;;;;;;;15.88;12.38;;;4.90;99.90;;;;;;6076705;23;20030;-82
2024/02/01 21:10:15;;;;;;;19.10;13.27;;;4.90;99.90;;;;;;6075599;23;20051;-85
2024/02/01 21:13:10;;;;;;;18.92;12.80;;;4.80;99.90;;;;;;6041623;23;20050;-85
2024/02/01 21:16:22;;;;;;;19.65;13.82;;;4.70;99.90;;;;;;6044773;23;20030;-84
2024/02/01 21:19:18;;;;;;;19.55;13.25;;;4.80;99.90;;;;;;6068080;23;20042;-84
2024/02/01 21:22:13;;;;;;;18.17;13.07;;;4.80;99.90;;;;;;6038784;23;20050;-84
2024/02/01 21:25:34;;;;;;;17.45;13.10;;;4.70;99.90;;;;;;6057640;23;20034;-84
2024/02/01 21:28:28;;;;;;;19.17;13.07;;;4.60;99.90;;;;;;6065977;23;20023;-86
2024/02/01 21:31:33;;;;;;;18.92;13.50;;;4.60;99.90;;;;;;6061135;23;20141;-84
2024/02/01 21:34:25;;;;;;;23.23;14.43;;;4.40;99.90;;;;;;6036313;23;20031;-84
2024/02/01 21:37:17;;;;;;;19.23;13.88;;;4.30;99.90;;;;;;6055034;23;20031;-84
2024/02/01 21:40:18;;;;;;;27.95;21.38;;;4.10;99.90;;;;;;6061437;23;20034;-82
2024/02/01 21:43:21;;;;;;;25.25;18.58;;;4.00;99.90;;;;;;6047709;23;20023;-81
2024/02/01 21:46:15;;;;;;;22.73;15.25;;;3.90;99.90;;;;;;6054018;23;20026;-83
2024/02/01 21:49:03;;;;;;;21.25;14.52;;;3.70;99.90;;;;;;6059309;23;20023;-81
2024/02/01 21:51:53;;;;;;;22.65;16.08;;;3.60;99.90;;;;;;6037593;23;20374;-83
2024/02/01 21:54:42;;;;;;;23.65;15.45;;;3.50;99.90;;;;;;6059712;23;20035;-82
2024/02/01 21:57:31;;;;;;;28.25;16.13;;;3.40;99.90;;;;;;6068843;23;20058;-84
2024/02/01 22:00:25;;;;;;;32.70;19.10;;;3.30;99.90;;;;;;6064825;23;20106;-83
2024/02/01 22:03:14;;;;;;;29.40;18.20;;;3.30;99.90;;;;;;6058769;23;20046;-82
2024/02/01 22:06:03;;;;;;;26.63;17.20;;;3.20;99.90;;;;;;6055749;23;20094;-80
2024/02/01 22:08:52;;;;;;;30.02;19.48;;;3.20;99.90;;;;;;6068720;23;20034;-83